Time;durP1;ratioP1;P1;durP2;ratioP2;P2;SDS_P1;SDS_P2;PMS_P1;PMS_P2;Temp;Humidity;BMP_temperature;BMP_pressure;BME280_temperature;BME280_humidity;BME280_pressure;Samples;Min_cycle;Max_cycle;Signal;HPM_P1;HPM_P2
2022/03/11 00:02:26;;;;;;;2.30;1.70;;;;;;;-145.06;0.00;60892.56;4688090;29;20057;-89
2022/03/11 00:05:06;;;;;;;3.25;2.10;;;;;;;-145.06;0.00;60892.56;4671513;29;20042;-90
2022/03/11 00:07:45;;;;;;;2.38;1.48;;;;;;;-145.06;0.00;60892.56;4673717;29;20026;-89
2022/03/11 00:10:24;;;;;;;2.45;1.67;;;;;;;-145.06;0.00;60892.56;4693548;29;20731;-89
2022/03/11 00:13:03;;;;;;;2.53;1.90;;;;;;;-145.06;0.00;60892.56;4693460;29;20033;-90
2022/03/11 00:15:42;;;;;;;2.20;1.65;;;;;;;-145.06;0.00;60892.56;4683997;29;20481;-90
2022/03/11 00:18:21;;;;;;;2.22;1.50;;;;;;;-145.06;0.00;60892.56;4670102;29;20030;-89
2022/03/11 00:21:00;;;;;;;3.13;1.93;;;;;;;-145.06;0.00;60892.56;4693358;29;20050;-90
2022/03/11 00:23:40;;;;;;;3.03;2.00;;;;;;;-145.06;0.00;60892.56;4683136;29;20029;-90
2022/03/11 00:26:19;;;;;;;;;;;;;;;-145.06;0.00;60892.56;4690287;29;20037;-89
2022/03/11 00:28:58;;;;;;;3.53;2.00;;;;;;;-145.06;0.00;60892.56;4664020;29;19912;-90
2022/03/11 00:31:37;;;;;;;6.77;3.07;;;;;;;-145.06;0.00;60892.56;4672100;29;20037;-89
2022/03/11 00:34:17;;;;;;;8.80;4.78;;;;;;;-145.06;0.00;60892.56;4683346;29;20038;-90
2022/03/11 00:36:55;;;;;;;9.98;5.53;;;;;;;-145.06;0.00;60892.56;4686524;29;20038;-89
2022/03/11 00:39:34;;;;;;;9.05;4.70;;;;;;;-145.06;0.00;60892.56;4685569;29;20029;-90
2022/03/11 00:42:13;;;;;;;9.40;4.88;;;;;;;-145.06;0.00;60892.56;4693935;29;20041;-90
2022/03/11 00:44:52;;;;;;;6.25;3.83;;;;;;;-145.06;0.00;60892.56;4707750;29;20038;-89
2022/03/11 00:47:31;;;;;;;5.70;3.50;;;;;;;-145.06;0.00;60892.56;4690311;29;20374;-91
2022/03/11 00:50:11;;;;;;;4.57;2.87;;;;;;;-145.06;0.00;60892.56;4692380;29;20037;-90
2022/03/11 00:52:50;;;;;;;;;;;;;;;-145.06;0.00;60892.56;4681413;29;20437;-89
2022/03/11 00:55:29;;;;;;;4.60;2.78;;;;;;;-145.06;0.00;60892.56;4672765;29;19912;-91
2022/03/11 00:58:08;;;;;;;3.67;2.42;;;;;;;-145.06;0.00;60892.56;4680269;29;20041;-90
2022/03/11 01:00:47;;;;;;;2.97;2.15;;;;;;;-145.06;0.00;60892.56;4668579;29;20058;-90
2022/03/11 01:03:27;;;;;;;3.25;2.20;;;;;;;-145.06;0.00;60892.56;4656686;29;20034;-91
2022/03/11 01:06:05;;;;;;;3.23;2.50;;;;;;;-145.06;0.00;60892.56;4672563;29;20034;-90
2022/03/11 01:08:44;;;;;;;3.27;2.40;;;;;;;-145.06;0.00;60892.56;4686263;29;20038;-90
2022/03/11 01:11:23;;;;;;;2.13;1.70;;;;;;;-145.06;0.00;60892.56;4672609;29;20295;-90
2022/03/11 01:14:03;;;;;;;2.95;1.80;;;;;;;-145.06;0.00;60892.56;4686183;29;20528;-90
2022/03/11 01:16:42;;;;;;;3.00;1.92;;;;;;;-145.06;0.00;60892.56;4673486;29;20029;-89
2022/03/11 01:19:21;;;;;;;2.70;1.70;;;;;;;-145.06;0.00;60892.56;4662583;29;20070;-92
2022/03/11 01:22:00;;;;;;;2.30;1.87;;;;;;;-145.06;0.00;60892.56;4679973;29;20042;-91
2022/03/11 01:24:39;;;;;;;3.00;1.83;;;;;;;-145.06;0.00;60892.56;4690943;29;20041;-90
2022/03/11 01:27:18;;;;;;;3.55;1.90;;;;;;;-145.06;0.00;60892.56;4685295;29;20507;-91
2022/03/11 01:29:56;;;;;;;2.75;1.83;;;;;;;-145.06;0.00;60892.56;4691698;29;20049;-90
2022/03/11 01:32:36;;;;;;;2.88;1.80;;;;;;;-145.06;0.00;60892.56;4671284;29;20037;-90
2022/03/11 01:35:15;;;;;;;3.15;1.90;;;;;;;-145.06;0.00;60892.56;4679562;29;20493;-90
2022/03/11 01:37:54;;;;;;;3.00;2.00;;;;;;;-145.06;0.00;60892.56;4678934;29;20046;-89
2022/03/11 01:40:33;;;;;;;2.75;1.85;;;;;;;-145.06;0.00;60892.56;4668681;29;20045;-91
2022/03/11 01:43:16;;;;;;;3.50;2.10;;;;;;;-145.06;0.00;60892.56;4683204;29;20042;-91
2022/03/11 01:45:59;;;;;;;2.70;1.85;;;;;;;-145.06;0.00;60892.56;4676203;29;20037;-89
2022/03/11 01:48:38;;;;;;;3.15;1.98;;;;;;;-145.06;0.00;60892.56;4667929;29;20037;-90
2022/03/11 01:51:17;;;;;;;2.88;1.67;;;;;;;-145.06;0.00;60892.56;4707484;29;20037;-90
2022/03/11 01:53:57;;;;;;;2.55;1.70;;;;;;;-145.06;0.00;60892.56;4680750;29;20129;-92
2022/03/11 01:56:37;;;;;;;2.67;1.80;;;;;;;-145.06;0.00;60892.56;4689317;29;20038;-91
2022/03/11 01:59:16;;;;;;;3.38;1.70;;;;;;;-145.06;0.00;60892.56;4689258;29;20037;-91
2022/03/11 02:01:55;;;;;;;2.53;1.50;;;;;;;-145.06;0.00;60892.56;4677734;29;20034;-90
2022/03/11 02:04:34;;;;;;;2.90;1.90;;;;;;;-145.06;0.00;60892.56;4668964;29;20037;-90
2022/03/11 02:07:13;;;;;;;4.13;1.80;;;;;;;-145.06;0.00;60892.56;4677959;29;20287;-89
2022/03/11 02:09:53;;;;;;;2.85;1.80;;;;;;;-145.06;0.00;60892.56;4682360;29;20072;-91
2022/03/11 02:12:34;;;;;;;;;;;;;;;-145.06;0.00;60892.56;4684833;29;20068;-90
2022/03/11 02:15:13;;;;;;;3.03;1.83;;;;;;;-145.06;0.00;60892.56;4688537;29;20375;-89
2022/03/11 02:17:52;;;;;;;3.45;2.05;;;;;;;-145.06;0.00;60892.56;4674312;29;20062;-90
2022/03/11 02:20:32;;;;;;;3.90;2.05;;;;;;;-145.06;0.00;60892.56;4695783;29;20037;-89
2022/03/11 02:23:11;;;;;;;;;;;;;;;-145.06;0.00;60892.56;4696779;29;20449;-90
2022/03/11 02:25:52;;;;;;;3.25;2.03;;;;;;;-145.06;0.00;60892.56;4694490;29;20019;-91
2022/03/11 02:28:32;;;;;;;2.33;1.70;;;;;;;-145.06;0.00;60892.56;4687743;29;20116;-91
2022/03/11 02:31:11;;;;;;;;;;;;;;;-145.06;0.00;60892.56;4692567;29;20033;-90
2022/03/11 02:33:50;;;;;;;2.67;1.57;;;;;;;-145.06;0.00;60892.56;4687616;29;20380;-92
2022/03/11 02:36:30;;;;;;;3.20;1.95;;;;;;;-145.06;0.00;60892.56;4688707;29;20366;-89
2022/03/11 02:39:08;;;;;;;2.93;1.90;;;;;;;-145.06;0.00;60892.56;4694269;29;20042;-89
2022/03/11 02:41:49;;;;;;;3.38;2.13;;;;;;;-145.06;0.00;60892.56;4691222;29;20033;-90
2022/03/11 02:44:31;;;;;;;2.90;2.03;;;;;;;-145.06;0.00;60892.56;4687738;29;20121;-91
2022/03/11 02:47:10;;;;;;;1.80;1.55;;;;;;;-145.06;0.00;60892.56;4681917;29;20109;-89
2022/03/11 02:49:49;;;;;;;3.15;2.10;;;;;;;-145.06;0.00;60892.56;4688336;29;20109;-92
2022/03/11 02:52:29;;;;;;;2.45;1.42;;;;;;;-145.06;0.00;60892.56;4695045;29;20037;-90
2022/03/11 02:55:09;;;;;;;2.92;1.60;;;;;;;-145.06;0.00;60892.56;4690233;29;20046;-90
2022/03/11 02:57:48;;;;;;;3.05;1.98;;;;;;;-145.06;0.00;60892.56;4688568;29;20022;-90
2022/03/11 03:00:27;;;;;;;3.15;2.30;;;;;;;-145.06;0.00;60892.56;4689825;29;20371;-89
2022/03/11 03:03:06;;;;;;;3.20;2.00;;;;;;;-145.06;0.00;60892.56;4686093;29;20481;-89
2022/03/11 03:05:45;;;;;;;4.95;1.70;;;;;;;-145.06;0.00;60892.56;4684751;29;20034;-90
2022/03/11 03:08:25;;;;;;;2.93;2.17;;;;;;;-145.06;0.00;60892.56;4689377;29;20038;-89
2022/03/11 03:11:04;;;;;;;3.50;2.03;;;;;;;-145.06;0.00;60892.56;4686908;29;20481;-90
2022/03/11 03:13:43;;;;;;;3.80;2.03;;;;;;;-145.06;0.00;60892.56;4689396;29;20361;-91
2022/03/11 03:16:22;;;;;;;3.28;1.95;;;;;;;-145.06;0.00;60892.56;4667148;29;20491;-90
2022/03/11 03:19:01;;;;;;;2.78;1.90;;;;;;;-145.06;0.00;60892.56;4675871;29;20038;-90
2022/03/11 03:21:40;;;;;;;2.55;1.77;;;;;;;-145.06;0.00;60892.56;4673362;29;20045;-89
2022/03/11 03:24:19;;;;;;;3.67;2.22;;;;;;;-145.06;0.00;60892.56;4690158;29;20508;-90
2022/03/11 03:26:58;;;;;;;3.30;1.83;;;;;;;-145.06;0.00;60892.56;4688216;29;20042;-90
2022/03/11 03:29:37;;;;;;;2.67;1.92;;;;;;;-145.06;0.00;60892.56;4696108;29;20037;-91
2022/03/11 03:32:17;;;;;;;3.17;1.92;;;;;;;-145.06;0.00;60892.56;4695087;29;20041;-90
2022/03/11 03:34:55;;;;;;;2.70;1.70;;;;;;;-145.06;0.00;60892.56;4690301;29;20030;-89
2022/03/11 03:37:34;;;;;;;3.17;2.17;;;;;;;-145.06;0.00;60892.56;4687582;29;20038;-89
2022/03/11 03:40:13;;;;;;;3.43;2.10;;;;;;;-145.06;0.00;60892.56;4692882;29;20057;-93
2022/03/11 03:42:52;;;;;;;2.93;2.13;;;;;;;-145.06;0.00;60892.56;4695575;29;20290;-89
2022/03/11 03:45:31;;;;;;;3.27;1.83;;;;;;;-145.06;0.00;60892.56;4687368;29;20271;-90
2022/03/11 03:48:10;;;;;;;4.43;2.15;;;;;;;-145.06;0.00;60892.56;4682547;29;20314;-92
2022/03/11 03:50:49;;;;;;;3.63;2.30;;;;;;;-145.06;0.00;60892.56;4689832;29;20041;-91
2022/03/11 03:53:28;;;;;;;3.90;2.30;;;;;;;-145.06;0.00;60892.56;4692408;29;20042;-91
2022/03/11 03:56:07;;;;;;;3.90;2.20;;;;;;;-145.06;0.00;60892.56;4695464;29;20038;-90
2022/03/11 03:58:46;;;;;;;2.50;2.00;;;;;;;-145.06;0.00;60892.56;4677218;29;20029;-91
2022/03/11 04:01:25;;;;;;;3.47;2.00;;;;;;;-145.06;0.00;60892.56;4699621;29;20275;-89
2022/03/11 04:04:05;;;;;;;4.00;2.20;;;;;;;-145.06;0.00;60892.56;4714087;29;20042;-88
2022/03/11 04:06:45;;;;;;;3.53;2.25;;;;;;;-145.06;0.00;60892.56;4690565;29;20039;-91
2022/03/11 04:09:23;;;;;;;3.67;2.10;;;;;;;-145.06;0.00;60892.56;4694562;29;20373;-92
2022/03/11 04:12:03;;;;;;;3.25;2.10;;;;;;;-145.06;0.00;60892.56;4671021;29;20038;-92
2022/03/11 04:14:42;;;;;;;3.63;2.13;;;;;;;-145.06;0.00;60892.56;4680190;29;20038;-89
2022/03/11 04:17:21;;;;;;;3.70;2.22;;;;;;;-145.06;0.00;60892.56;4683122;29;20034;-92
2022/03/11 04:20:01;;;;;;;3.03;2.20;;;;;;;-145.06;0.00;60892.56;4690247;29;20656;-92
2022/03/11 04:22:44;;;;;;;3.70;2.47;;;;;;;-145.06;0.00;60892.56;4668997;29;20113;-92
2022/03/11 04:25:23;;;;;;;3.10;2.13;;;;;;;-145.06;0.00;60892.56;4685615;29;20034;-89
2022/03/11 04:28:02;;;;;;;3.80;2.38;;;;;;;-145.06;0.00;60892.56;4687630;29;20046;-90
2022/03/11 04:30:41;;;;;;;3.65;2.42;;;;;;;-145.06;0.00;60892.56;4680324;29;20041;-92
2022/03/11 04:33:21;;;;;;;4.07;2.60;;;;;;;-145.06;0.00;60892.56;4686061;29;20046;-91
2022/03/11 04:36:01;;;;;;;3.90;2.38;;;;;;;-145.06;0.00;60892.56;4694678;29;20029;-92
2022/03/11 04:38:40;;;;;;;;;;;;;;;-145.06;0.00;60892.56;4683200;29;20026;-92
2022/03/11 04:41:19;;;;;;;4.57;2.90;;;;;;;-145.06;0.00;60892.56;4677890;29;19916;-90
2022/03/11 04:43:59;;;;;;;3.95;2.63;;;;;;;-145.06;0.00;60892.56;4683267;29;20037;-93
2022/03/11 04:46:40;;;;;;;4.82;2.50;;;;;;;-145.06;0.00;60892.56;4678713;29;20501;-89
2022/03/11 04:49:19;;;;;;;5.03;3.08;;;;;;;-145.06;0.00;60892.56;4672025;29;20033;-90
2022/03/11 04:51:59;;;;;;;5.50;3.45;;;;;;;-145.06;0.00;60892.56;4675642;29;20033;-92
2022/03/11 04:54:37;;;;;;;4.82;3.17;;;;;;;-145.06;0.00;60892.56;4696493;29;20030;-91
2022/03/11 04:57:16;;;;;;;5.90;3.90;;;;;;;-145.06;0.00;60892.56;4696488;29;20021;-90
2022/03/11 04:59:55;;;;;;;6.07;3.70;;;;;;;-145.06;0.00;60892.56;4697463;29;20607;-91
2022/03/11 05:02:35;;;;;;;4.90;3.40;;;;;;;-145.06;0.00;60892.56;4656351;29;20042;-91
2022/03/11 05:05:15;;;;;;;6.68;3.33;;;;;;;-145.06;0.00;60892.56;4660433;29;20369;-90
2022/03/11 05:07:54;;;;;;;6.60;4.18;;;;;;;-145.06;0.00;60892.56;4685784;29;20393;-92
2022/03/11 05:10:34;;;;;;;6.72;3.78;;;;;;;-145.06;0.00;60892.56;4673228;29;20120;-91
2022/03/11 05:13:13;;;;;;;5.90;3.60;;;;;;;-145.06;0.00;60892.56;4669474;29;20042;-91
2022/03/11 05:15:52;;;;;;;5.93;3.50;;;;;;;-145.06;0.00;60892.56;4688054;29;20286;-91
2022/03/11 05:18:31;;;;;;;5.67;3.87;;;;;;;-145.06;0.00;60892.56;4695350;29;20445;-91
2022/03/11 05:21:10;;;;;;;6.38;3.80;;;;;;;-145.06;0.00;60892.56;4696328;29;20038;-92
2022/03/11 05:23:48;;;;;;;7.78;4.03;;;;;;;-145.06;0.00;60892.56;4686459;29;20033;-91
2022/03/11 05:26:29;;;;;;;7.03;3.83;;;;;;;-145.06;0.00;60892.56;4704383;29;20041;-93
2022/03/11 05:29:08;;;;;;;6.07;3.58;;;;;;;-145.06;0.00;60892.56;4665455;29;20045;-89
2022/03/11 05:31:47;;;;;;;5.25;3.55;;;;;;;-145.06;0.00;60892.56;4680467;29;20117;-90
2022/03/11 05:34:26;;;;;;;4.32;2.92;;;;;;;-145.06;0.00;60892.56;4685876;29;20042;-91
2022/03/11 05:37:05;;;;;;;5.13;2.95;;;;;;;-145.06;0.00;60892.56;4669698;29;20475;-92
2022/03/11 05:39:45;;;;;;;5.85;3.15;;;;;;;-145.06;0.00;60892.56;4684639;29;20037;-93
2022/03/11 05:42:24;;;;;;;5.90;3.33;;;;;;;-145.06;0.00;60892.56;4686358;29;20034;-89
2022/03/11 05:45:03;;;;;;;5.60;3.43;;;;;;;-145.06;0.00;60892.56;4675275;29;20042;-90
2022/03/11 05:47:42;;;;;;;5.78;3.60;;;;;;;-145.06;0.00;60892.56;4685630;29;20275;-92
2022/03/11 05:50:21;;;;;;;4.85;3.03;;;;;;;-145.06;0.00;60892.56;4675389;29;20041;-91
2022/03/11 05:53:00;;;;;;;5.40;3.33;;;;;;;-145.06;0.00;60892.56;4690683;29;20492;-91
2022/03/11 05:55:39;;;;;;;6.18;3.22;;;;;;;-145.06;0.00;60892.56;4679285;29;20274;-91
2022/03/11 05:58:18;;;;;;;5.97;3.17;;;;;;;-145.06;0.00;60892.56;4672858;29;20038;-92
2022/03/11 06:00:57;;;;;;;5.72;3.55;;;;;;;-145.06;0.00;60892.56;4685946;29;20046;-91
2022/03/11 06:03:36;;;;;;;5.57;3.73;;;;;;;-145.06;0.00;60892.56;4670389;29;20033;-89
2022/03/11 06:06:15;;;;;;;6.73;3.83;;;;;;;-145.06;0.00;60892.56;4687158;29;20112;-91
2022/03/11 06:08:55;;;;;;;6.47;3.67;;;;;;;-145.06;0.00;60892.56;4662827;29;20031;-90
2022/03/11 06:11:34;;;;;;;7.20;4.30;;;;;;;-145.06;0.00;60892.56;4671705;29;20042;-92
2022/03/11 06:14:14;;;;;;;6.82;4.13;;;;;;;-145.06;0.00;60892.56;4665360;29;20274;-92
2022/03/11 06:16:52;;;;;;;7.05;4.10;;;;;;;-145.06;0.00;60892.56;4664993;29;20484;-92
2022/03/11 06:19:31;;;;;;;6.18;3.75;;;;;;;-145.06;0.00;60892.56;4681339;29;20042;-92
2022/03/11 06:22:10;;;;;;;5.68;3.53;;;;;;;-145.06;0.00;60892.56;4665959;29;20042;-92
2022/03/11 06:24:49;;;;;;;8.07;4.57;;;;;;;-145.06;0.00;60892.56;4681585;29;20045;-91
2022/03/11 06:27:28;;;;;;;8.55;4.50;;;;;;;-145.06;0.00;60892.56;4673117;29;20042;-92
2022/03/11 06:30:11;;;;;;;5.88;3.42;;;;;;;-145.06;0.00;60892.56;4682983;29;20473;-94
2022/03/11 06:32:51;;;;;;;6.18;3.65;;;;;;;-145.06;0.00;60892.56;4676391;29;20125;-92
2022/03/11 06:35:30;;;;;;;6.50;3.83;;;;;;;-145.06;0.00;60892.56;4692177;29;21418;-92
2022/03/11 06:38:09;;;;;;;6.88;3.88;;;;;;;-145.06;0.00;60892.56;4685327;29;20042;-91
2022/03/11 06:40:51;;;;;;;6.80;4.07;;;;;;;-145.06;0.00;60892.56;4689453;29;20034;-92
2022/03/11 06:43:30;;;;;;;5.90;3.72;;;;;;;-145.06;0.00;60892.56;4732070;24;20045;-90
2022/03/11 06:46:09;;;;;;;7.60;4.33;;;;;;;-145.06;0.00;60892.56;4690309;29;20711;-92
2022/03/11 06:48:48;;;;;;;6.83;4.53;;;;;;;-145.06;0.00;60892.56;4693859;29;20290;-92
2022/03/11 06:51:27;;;;;;;8.27;4.50;;;;;;;-145.06;0.00;60892.56;4699649;29;20781;-93
2022/03/11 06:54:07;;;;;;;6.28;3.90;;;;;;;-145.06;0.00;60892.56;4687431;29;20026;-89
2022/03/11 06:56:46;;;;;;;6.13;3.25;;;;;;;-145.06;0.00;60892.56;4669166;29;20030;-93
2022/03/11 06:59:25;;;;;;;6.80;3.93;;;;;;;-145.06;0.00;60892.56;4676894;29;20069;-93
2022/03/11 07:02:05;;;;;;;8.10;4.50;;;;;;;-145.06;0.00;60892.56;4670062;29;20638;-92
2022/03/11 07:04:44;;;;;;;7.57;4.53;;;;;;;-145.06;0.00;60892.56;4677344;29;20037;-92
2022/03/11 07:07:24;;;;;;;6.93;4.60;;;;;;;-145.06;0.00;60892.56;4683812;29;20034;-92
2022/03/11 07:10:04;;;;;;;;;;;;;;;-145.06;0.00;60892.56;4685919;29;20378;-93
2022/03/11 07:12:43;;;;;;;;;;;;;;;-145.06;0.00;60892.56;4668539;29;19916;-92
2022/03/11 07:15:22;;;;;;;5.97;3.50;;;;;;;-145.06;0.00;60892.56;4683794;29;19917;-92
2022/03/11 07:18:02;;;;;;;5.80;3.67;;;;;;;-145.06;0.00;60892.56;4681070;29;20034;-93
2022/03/11 07:20:41;;;;;;;6.43;3.92;;;;;;;-145.06;0.00;60892.56;4692292;29;20026;-91
2022/03/11 07:23:20;;;;;;;7.87;4.90;;;;;;;-145.06;0.00;60892.56;4695207;29;20069;-91
2022/03/11 07:25:59;;;;;;;7.05;4.28;;;;;;;-145.06;0.00;60892.56;4682528;29;20065;-90
2022/03/11 07:28:38;;;;;;;6.22;4.15;;;;;;;-145.06;0.00;60892.56;4694057;29;20033;-91
2022/03/11 07:31:17;;;;;;;7.28;4.18;;;;;;;-145.06;0.00;60892.56;4693855;29;20061;-92
2022/03/11 07:33:56;;;;;;;8.23;4.60;;;;;;;-145.06;0.00;60892.56;4694334;29;20029;-91
2022/03/11 07:36:35;;;;;;;6.72;4.00;;;;;;;-145.06;0.00;60892.56;4693634;29;20358;-93
2022/03/11 07:39:14;;;;;;;7.25;3.75;;;;;;;-145.06;0.00;60892.56;4693654;29;20483;-93
2022/03/11 07:41:53;;;;;;;7.18;4.18;;;;;;;-145.06;0.00;60892.56;4693681;29;20034;-93
2022/03/11 07:44:33;;;;;;;6.90;4.05;;;;;;;-145.06;0.00;60892.56;4693359;29;20117;-92
2022/03/11 07:47:12;;;;;;;;;;;;;;;-145.06;0.00;60892.56;4693996;29;20109;-90
2022/03/11 07:49:51;;;;;;;8.02;4.93;;;;;;;-145.06;0.00;60892.56;4693406;29;20011;-91
2022/03/11 07:52:30;;;;;;;6.85;4.13;;;;;;;-145.06;0.00;60892.56;4693426;29;20041;-91
2022/03/11 07:55:10;;;;;;;9.15;4.82;;;;;;;-145.06;0.00;60892.56;4693751;29;20258;-93
2022/03/11 07:57:49;;;;;;;8.52;4.40;;;;;;;-145.06;0.00;60892.56;4693361;29;20037;-91
2022/03/11 08:00:28;;;;;;;7.07;4.28;;;;;;;-145.06;0.00;60892.56;4693150;29;20029;-93
2022/03/11 08:03:08;;;;;;;8.50;5.03;;;;;;;-145.06;0.00;60892.56;4681740;29;20045;-93
2022/03/11 08:05:47;;;;;;;8.40;4.35;;;;;;;-145.06;0.00;60892.56;4675285;29;20038;-93
2022/03/11 08:08:27;;;;;;;7.70;4.97;;;;;;;-145.06;0.00;60892.56;4670620;29;20545;-93
2022/03/11 08:11:07;;;;;;;6.68;4.28;;;;;;;-145.06;0.00;60892.56;4658567;29;20034;-92
2022/03/11 08:13:46;;;;;;;7.43;3.70;;;;;;;-145.06;0.00;60892.56;4669061;29;20037;-92
2022/03/11 08:16:25;;;;;;;6.78;4.05;;;;;;;-145.06;0.00;60892.56;4675159;29;20057;-94
2022/03/11 08:19:06;;;;;;;7.57;4.50;;;;;;;-145.06;0.00;60892.56;4677582;29;20061;-93
2022/03/11 08:21:45;;;;;;;8.65;4.90;;;;;;;-145.06;0.00;60892.56;4674829;29;20038;-92
2022/03/11 08:24:24;;;;;;;7.80;4.65;;;;;;;-145.06;0.00;60892.56;4674563;29;20041;-90
2022/03/11 08:27:04;;;;;;;7.20;3.92;;;;;;;-145.06;0.00;60892.56;4675352;29;20030;-91
2022/03/11 08:29:43;;;;;;;6.38;3.92;;;;;;;-145.06;0.00;60892.56;4674846;29;20042;-88
2022/03/11 08:32:22;;;;;;;6.75;4.38;;;;;;;-145.06;0.00;60892.56;4674749;29;20061;-89
2022/03/11 08:35:01;;;;;;;6.80;4.10;;;;;;;-145.06;0.00;60892.56;4674345;29;20042;-91
2022/03/11 08:37:40;;;;;;;8.35;4.60;;;;;;;-145.06;0.00;60892.56;4673961;29;20030;-90
2022/03/11 08:40:24;;;;;;;6.35;3.95;;;;;;;-145.06;0.00;60892.56;4673945;29;20470;-90
2022/03/11 08:43:03;;;;;;;6.63;4.18;;;;;;;-145.06;0.00;60892.56;4673856;29;20124;-89
2022/03/11 08:45:43;;;;;;;7.47;4.28;;;;;;;-145.06;0.00;60892.56;4664263;29;20378;-91
2022/03/11 08:48:24;;;;;;;7.65;4.50;;;;;;;-145.06;0.00;60892.56;4689265;29;20037;-90
2022/03/11 08:51:06;;;;;;;6.45;4.03;;;;;;;-145.06;0.00;60892.56;4692149;29;20045;-90
2022/03/11 08:53:44;;;;;;;10.23;5.15;;;;;;;-145.06;0.00;60892.56;4691674;29;20033;-89
2022/03/11 08:56:23;;;;;;;6.75;4.55;;;;;;;-145.06;0.00;60892.56;4692767;29;20361;-91
2022/03/11 08:59:05;;;;;;;6.45;4.10;;;;;;;-145.06;0.00;60892.56;4687063;29;20037;-92
2022/03/11 09:01:47;;;;;;;6.10;3.80;;;;;;;-145.06;0.00;60892.56;4673602;29;20386;-91
2022/03/11 09:04:26;;;;;;;5.90;3.70;;;;;;;-145.06;0.00;60892.56;4674012;29;20041;-92
2022/03/11 09:07:05;;;;;;;6.20;4.10;;;;;;;-145.06;0.00;60892.56;4673433;29;20042;-91
2022/03/11 09:09:44;;;;;;;5.60;3.90;;;;;;;-145.06;0.00;60892.56;4673908;29;20386;-89
2022/03/11 09:12:23;;;;;;;5.65;3.80;;;;;;;-145.06;0.00;60892.56;4673852;29;20081;-90
2022/03/11 09:15:06;;;;;;;5.78;3.58;;;;;;;-145.06;0.00;60892.56;4673596;29;20045;-91
2022/03/11 09:17:45;;;;;;;5.40;3.72;;;;;;;-145.06;0.00;60892.56;4666638;29;20030;-90
2022/03/11 09:20:26;;;;;;;5.80;3.63;;;;;;;-145.06;0.00;60892.56;4673550;29;20034;-90
2022/03/11 09:23:06;;;;;;;6.93;4.30;;;;;;;-145.06;0.00;60892.56;4674414;29;20291;-90
2022/03/11 09:25:45;;;;;;;;;;;;;;;-145.06;0.00;60892.56;4674877;29;20041;-89
2022/03/11 09:28:24;;;;;;;5.32;3.25;;;;;;;-145.06;0.00;60892.56;4673213;29;20427;-89
2022/03/11 09:31:08;;;;;;;5.22;3.45;;;;;;;-145.06;0.00;60892.56;4676274;29;20038;-89
2022/03/11 09:33:46;;;;;;;4.10;2.60;;;;;;;-145.06;0.00;60892.56;4675972;29;20034;-90
2022/03/11 09:36:26;;;;;;;4.23;2.63;;;;;;;-145.06;0.00;60892.56;4673742;29;20370;-90
2022/03/11 09:39:05;;;;;;;4.47;3.05;;;;;;;-145.06;0.00;60892.56;4673397;29;20038;-91
2022/03/11 09:41:45;;;;;;;6.47;3.80;;;;;;;-145.06;0.00;60892.56;4662452;29;20038;-91
2022/03/11 09:44:24;;;;;;;4.65;3.00;;;;;;;-145.06;0.00;60892.56;4673572;29;20042;-90
2022/03/11 09:47:03;;;;;;;5.95;3.63;;;;;;;-145.06;0.00;60892.56;4674126;29;20065;-89
2022/03/11 09:49:43;;;;;;;5.75;3.63;;;;;;;-145.06;0.00;60892.56;4684778;29;20034;-90
2022/03/11 09:52:23;;;;;;;6.80;4.00;;;;;;;-145.06;0.00;60892.56;4691079;29;20456;-93
2022/03/11 09:55:04;;;;;;;4.95;3.17;;;;;;;-145.06;0.00;60892.56;4661590;29;20750;-90
2022/03/11 09:57:43;;;;;;;6.15;3.47;;;;;;;-145.06;0.00;60892.56;4673635;29;20034;-91
2022/03/11 10:00:22;;;;;;;5.70;3.60;;;;;;;-145.06;0.00;60892.56;4673006;29;20037;-91
2022/03/11 10:03:02;;;;;;;4.72;3.25;;;;;;;-145.06;0.00;60892.56;4673211;29;20041;-90
2022/03/11 10:05:49;;;;;;;4.88;3.40;;;;;;;-145.06;0.00;60892.56;4671669;29;20042;-90
2022/03/11 10:08:37;;;;;;;5.38;3.40;;;;;;;-145.06;0.00;60892.56;4669168;29;20030;-89
2022/03/11 10:11:23;;;;;;;5.68;3.15;;;;;;;-145.06;0.00;60892.56;4663152;29;20027;-90
2022/03/11 10:14:07;;;;;;;4.25;2.80;;;;;;;-145.06;0.00;60892.56;4658992;29;20030;-89
2022/03/11 10:16:46;;;;;;;4.43;3.20;;;;;;;-145.06;0.00;60892.56;4668629;29;20438;-90
2022/03/11 10:19:25;;;;;;;4.90;3.33;;;;;;;-145.06;0.00;60892.56;4676564;29;20037;-91
2022/03/11 10:22:04;;;;;;;4.67;2.90;;;;;;;-145.06;0.00;60892.56;4683405;29;20270;-90
2022/03/11 10:24:43;;;;;;;6.20;3.13;;;;;;;-145.06;0.00;60892.56;4694184;29;20484;-91
2022/03/11 10:27:25;;;;;;;8.23;2.47;;;;;;;-145.06;0.00;60892.56;4694359;29;20041;-91
2022/03/11 10:30:15;;;;;;;4.30;3.28;;;;;;;-145.06;0.00;60892.56;4694528;29;20110;-90
2022/03/11 10:32:56;;;;;;;3.25;2.42;;;;;;;-145.06;0.00;60892.56;4694241;29;20120;-89
2022/03/11 10:35:45;;;;;;;4.22;2.85;;;;;;;-145.06;0.00;60892.56;4694854;29;20112;-91
2022/03/11 10:38:30;;;;;;;6.30;3.15;;;;;;;-145.06;0.00;60892.56;4694212;29;20121;-91
2022/03/11 10:41:09;;;;;;;5.40;3.50;;;;;;;-145.06;0.00;60892.56;4694877;29;20033;-92
2022/03/11 10:44:03;;;;;;;6.20;3.67;;;;;;;-145.06;0.00;60892.56;4691124;29;20041;-90
2022/03/11 10:46:42;;;;;;;5.78;3.50;;;;;;;-145.06;0.00;60892.56;4694698;29;20041;-91
2022/03/11 10:49:25;;;;;;;8.77;5.03;;;;;;;-145.06;0.00;60892.56;4698216;29;20022;-90
2022/03/11 10:52:04;;;;;;;9.63;4.47;;;;;;;-145.06;0.00;60892.56;4678662;29;20030;-90
2022/03/11 10:54:43;;;;;;;7.40;4.22;;;;;;;-145.06;0.00;60892.56;4675958;29;20385;-90
2022/03/11 10:57:33;;;;;;;6.57;4.13;;;;;;;-145.06;0.00;60892.56;4676512;29;20695;-90
2022/03/11 11:00:20;;;;;;;5.93;4.05;;;;;;;-145.06;0.00;60892.56;4675286;29;20370;-91
2022/03/11 11:03:02;;;;;;;6.72;3.53;;;;;;;-145.06;0.00;60892.56;4671666;29;20037;-90
2022/03/11 11:05:41;;;;;;;4.85;3.20;;;;;;;-145.06;0.00;60892.56;4675852;29;20041;-90
2022/03/11 11:08:21;;;;;;;5.75;3.95;;;;;;;187.52;0.00;60892.56;4675345;29;20038;-89
2022/03/11 11:11:00;;;;;;;5.53;3.58;;;;;;;187.52;0.00;60892.56;4674809;29;20037;-88
2022/03/11 11:13:39;;;;;;;6.10;3.67;;;;;;;187.52;0.00;60892.56;4674978;29;20033;-88
2022/03/11 11:16:28;;;;;;;7.15;4.28;;;;;;;-145.06;0.00;60892.56;4674612;29;20034;-90
2022/03/11 11:19:12;;;;;;;6.70;4.05;;;;;;;-145.06;0.00;60892.56;4676364;29;20037;-90
2022/03/11 11:21:51;;;;;;;5.05;3.63;;;;;;;-145.06;0.00;60892.56;4667155;29;20025;-89
2022/03/11 11:24:35;;;;;;;6.32;3.88;;;;;;;-145.06;0.00;60892.56;4675780;29;20042;-89
2022/03/11 11:27:15;;;;;;;8.02;4.10;;;;;;;-145.06;0.00;60892.56;4674701;29;20034;-88
2022/03/11 11:29:54;;;;;;;;;;;;;;;-145.06;0.00;60892.56;4674759;29;20033;-90
2022/03/11 11:32:36;;;;;;;5.30;3.45;;;;;;;-145.06;0.00;60892.56;4674557;29;19955;-89
2022/03/11 11:35:25;;;;;;;4.28;3.25;;;;;;;-145.06;0.00;60892.56;4668797;29;20030;-90
2022/03/11 11:38:08;;;;;;;4.78;3.20;;;;;;;-145.06;0.00;60892.56;4671799;29;20057;-90
2022/03/11 11:40:47;;;;;;;4.38;2.88;;;;;;;-145.06;0.00;60892.56;4674673;29;20041;-90
2022/03/11 11:43:31;;;;;;;6.43;2.80;;;;;;;-145.06;0.00;60892.56;4674777;29;20041;-90
2022/03/11 11:46:12;;;;;;;4.90;3.05;;;;;;;-145.06;0.00;60892.56;4674662;29;20442;-89
2022/03/11 11:48:52;;;;;;;4.68;3.03;;;;;;;-145.06;0.00;60892.56;4656708;29;20034;-90
2022/03/11 11:51:30;;;;;;;3.72;2.80;;;;;;;-145.06;0.00;60892.56;4656735;29;20038;-89
2022/03/11 11:54:11;;;;;;;5.23;2.73;;;;;;;-145.06;0.00;60892.56;4663692;29;20046;-89
2022/03/11 11:57:00;;;;;;;4.13;3.15;;;;;;;-145.06;0.00;60892.56;4673590;29;20493;-89
2022/03/11 11:59:41;;;;;;;4.72;3.10;;;;;;;-145.06;0.00;60892.56;4674198;29;20033;-90
2022/03/11 12:02:26;;;;;;;5.07;2.90;;;;;;;-145.06;0.00;60892.56;4670681;29;20070;-91
2022/03/11 12:05:48;;;;;;;4.88;3.20;;;;;;;-145.06;0.00;60892.56;4670692;29;20060;-90
2022/03/11 12:08:40;;;;;;;4.90;2.90;;;;;;;-145.06;0.00;60892.56;4674152;29;20026;-89
2022/03/11 12:11:39;;;;;;;4.68;2.75;;;;;;;187.52;0.00;60892.56;4655326;29;20041;-89
2022/03/11 12:14:18;;;;;;;4.18;2.63;;;;;;;-145.06;0.00;60892.56;4675423;29;20374;-89
2022/03/11 12:17:02;;;;;;;3.67;2.70;;;;;;;-145.06;0.00;60892.56;4680867;29;20033;-88
2022/03/11 12:19:45;;;;;;;3.30;2.22;;;;;;;-145.06;0.00;60892.56;4687620;29;20065;-91
2022/03/11 12:22:33;;;;;;;4.72;3.28;;;;;;;-145.06;0.00;60892.56;4673921;29;20042;-89
2022/03/11 12:25:12;;;;;;;4.35;3.30;;;;;;;-145.06;0.00;60892.56;4673084;29;20030;-89
2022/03/11 12:28:08;;;;;;;7.10;3.10;;;;;;;-145.06;0.00;60892.56;4656304;29;20379;-90